Logo AVAMET
Benvolgut visitant, si us plau, ingressa Recuperar contrasenya

Xàbia Montgó/Castellans

Dades diàries. Acumulats / Últims 30 dies disponibles

Data Temperatura (°C) Humitat rel. (%) Pressió rel. (hPa) Vent (km/h) Precipitació
Mínima Mitjana Màxima Amplitud
tèrmica
Mínima Mitjana Màxima Mínima Mitjana Màxima Predom. Mitjana Ràfega
màxima
Total
(mm)
Índex-n
Mínima Mitjana Màxima Mínima Mitjana Màxima n
0 a 1
P0 max
mm 5'
Dades mensuals acumulades fins l'últim dia disponible
01/2020 6,4 8,9 12,1 12,0 12,7 15,7 19,6 13,2 34 74 95 1.013 1.028 1.034   2,1 49,9 30,8
Dades anuals acumulades fins l'últim dia disponible
2020 6,4 8,9 12,1 12,0 12,7 15,7 19,6 13,2 34 74 95 1.013 1.028 1.034   2,1 49,9 30,8
Últims 30 dies disponibles
19-01-2020 8,8     12,3     15,7 6,9 58 76 92 1.013 1.015 1.020 SO 5,4 49,9 13,2 0,47 2,10
18-01-2020 12,1     13,8     16,9 4,8 46 67 80 1.020 1.027 1.032 NW 1,4 22,5 0,0
17-01-2020 11,3     15,7     19,6 8,3 34 48 75 1.027 1.029 1.031 W 5,5 37,0 0,0
16-01-2020 10,6     13,7     17,4 6,8 55 69 84 1.026 1.027 1.029 NW 1,0 19,3 0,0
15-01-2020 9,5     13,3     18,4 8,9 46 59 77 1.023 1.025 1.027 SW 1,8 19,3 0,0
14-01-2020 8,8     11,8     15,5 6,7 45 61 79 1.021 1.022 1.024 NNW 1,1 14,5 0,0
13-01-2020 6,4     10,9     15,2 8,8 49 69 89 1.022 1.025 1.030 NW 1,1 16,1 0,0
12-01-2020 6,8     9,8     12,7 5,9 57 75 91 1.028 1.030 1.031 NW 2,6 20,9 0,0
11-01-2020 9,6     11,2     13,9 4,3 66 77 86 1.028 1.030 1.032 NW 2,7 24,1 0,0
10-01-2020 8,9     11,3     14,4 5,5 62 83 95 1.022 1.025 1.028 NW 3,4 30,6 17,0 0,55 3,70
09-01-2020 10,2     12,0     15,4 5,2 70 82 90 1.024 1.026 1.029 W 2,3 19,3 0,0
08-01-2020 9,0     12,4     14,3 5,3 74 84 94 1.028 1.030 1.031 SO 4,5 25,7 0,2
07-01-2020 8,5     11,5     15,7 7,2 69 86 94 1.029 1.030 1.032 SSO 1,0 16,1 0,0
06-01-2020 8,3     11,6     14,7 6,4 73 83 92 1.028 1.029 1.030 NW 2,6 30,6 0,0
05-01-2020 8,4     12,2     17,6 9,2 52 67 77 1.027 1.029 1.031 E 0,5 9,7 0,0
04-01-2020 8,3     11,3     14,9 6,6 61 78 92 1.031 1.032 1.034 NW 0,2 9,7 0,0
03-01-2020 7,8     11,1     15,8 8,0 70 86 94 1.029 1.031 1.032 NW 0,5 14,5 0,2
02-01-2020 8,6     11,4     14,9 6,3 66 81 95 1.030 1.031 1.033 SSW 1,8 19,3 0,0
01-01-2020 7,4     11,1     15,1 7,7 72 86 95 1.031 1.032 1.033 NW 0,6 9,7 0,2
31-12-2019 8,6     10,2     13,6 5,0 84 88 92 1.032 1.032 1.034 O 1,1 12,9 0,0
30-12-2019 9,2     11,4     13,0 3,8 75 84 94 1.031 1.032 1.034 WNW 4,7 20,9 0,0
29-12-2019 8,9     11,2     13,7 4,8 76 86 93 1.030 1.032 1.034 W 1,3 14,5 0,0
28-12-2019 9,5     12,1     15,9 6,4 72 88 96 1.029 1.030 1.032 ESE 0,5 9,7 0,2
27-12-2019 10,5     13,8     18,4 7,9 67 81 92 1.027 1.029 1.030 NW 1,0 11,3 0,0
26-12-2019 13,4     16,8     23,9 10,5 36 57 84 1.021 1.024 1.029 NNW 1,0 14,5 0,0
25-12-2019 13,4     16,1     20,7 7,3 58 70 88 1.022 1.024 1.026 NW 0,8 11,3 0,0
24-12-2019 16,6     19,5     23,6 7,0 40 50 61 1.025 1.026 1.028 W 1,6 22,5 0,0
23-12-2019 15,2     18,0     21,9 6,7 32 47 58 1.020 1.024 1.026 W 5,8 45,1 0,0
22-12-2019 15,2     18,4     21,4 6,2 40 48 56 1.008 1.015 1.019 SW 5,1 49,9 0,0
21-12-2019 15,9     19,8     22,3 6,4 33 66 89 1.002 1.004 1.008 SW 5,5 66,0 0,0
Últims 13 mesos disponibles
12/2019 8,6 12,1 16,6 14,6 13,0 17,8 23,9 15,3 44 71 92 1.004 1.018 1.032 NW 3,6 66,0 172,6
11/2019 7,3 13,2 20,9 16,2 14,3 19,5 27,7 20,4 44 59 81 999 1.011 1.018 W 5,1 64,4 11,4
10/2019 11,7 17,6 21,4 20,8 16,6 24,7 30,5 18,8 43 70 87 1.008 1.016 1.021 SW 2,4 48,3 79,4
09/2019 13,8 20,4 23,4 23,5 22,8 27,1 32,2 18,4 58 78 94 1.009 1.017 1.023 SW 2,5 59,5 184,2
08/2019 19,8 22,8 26,0 26,2 26,6 30,5 36,4 16,6 55 74 84 1.010 1.015 1.019 WNW 3,0 40,2 47,4
07/2019 21,1 23,0 26,1 26,5 28,5 30,9 36,9 15,8 45 70 82 1.005 1.013 1.020 ESE 3,5 41,8 1,6
06/2019 14,7 18,5 23,9 22,3 21,6 26,6 35,6 20,9 46 68 84 1.008 1.015 1.021 WNW 4,3 45,1 1,0
05/2019 11,2 15,1 20,4 18,5 18,8 22,8 29,3 18,1 48 70 83 1.005 1.015 1.024 NW 3,0 51,5 11,6
04/2019 9,1 12,4 14,3 15,4 13,9 19,3 28,1 19,0 38 69 94 999 1.012 1.025 NW 4,0 49,9 377,2
03/2019 7,9 11,4 14,6 14,9 13,7 19,2 27,1 19,2 38 62 92 1.010 1.022 1.030 NW 2,7 54,7 38,0
02/2019 6,4 9,6 12,0 13,0 13,0 17,3 23,1 16,7 37 65 89 996 1.024 1.033 NW 3,4 53,1 0,2
01/2019 5,1 9,3 12,5 12,5 10,3 16,0 20,9 15,8 38 59 82 1.003 1.018 1.030 W 2,7 48,3 5,6
12/2018 8,1 11,3 14,9 14,5 12,7 18,3 22,9 14,8 42 68 87 1.008 1.024 1.030 NW 1,9 59,5 23,4
Tots els anys disponibles
2019 5,1 15,5 26,1 18,7 10,3 22,7 36,9 31,8 37 68 94 996 1.017 1.033 NW 3,3 66,0 930,2
2018 3,8 15,5 27,3 18,7 7,8 22,5 36,8 33,0 42 72 94 999 1.017 1.030 W 3,6 61,2 701,8
2017 0,8 15,4 26,4 18,6 8,4 22,5 34,0 33,2 3,6 67,6 588,4
2016 5,6 15,2 26,8 18,3 12,1 21,9 37,7 32,1 4,2 70,8 353,4
2015 3,4 15,8 21,7 18,9 22,1 22,7 37,9 34,5 4,3 66,0 453,6
2014 4,8 18,1 26,5 21,1 11,6 24,8 34,6 29,8 4,9 61,2 222,6
2013
Temperatura (°C)
Humitat relativa (%)
Velocitat del vent i ràfega màxima (km/h)
Direcció del vent (°)
Pressió (hPa)
Precipitació (mm)
Nota sobre les dades: s'avisa a l'usuari de la provisionalitat i no oficialitat d'aquestes dades
Logo AVAMET blanc
Web allotjada a Sollutia
Llicència de Creative CommonsLa web d'AVAMET i els seus continguts estan subjectes a una llicència de
Reconeixement - No Comercial - Compartir igual
Últimes estacions: Xixona - Els Ameradors (Soci), Agres - El Tossal (Soci), Xàbia - Bevenguts (MeteoXàbia), Llíria (Aj. Soci/Inforatge), Orihuela - Lo Capitán, Cox & Guardamar del Segura - horta (Meteorihuela), l'Alcúdia - Carriona & el Real de Gandia (Inforatge), Benicàssim - les Vil·les (Soci),  l'Alfàs del Pi - l'Albir (Soci), - - -